Aviation Digital Data Service (ADDS)

Output produced by TAFs form (1928 UTC 27 May 2017)
found at http://aviationweather.gov/adds/tafs/
 
KASE 271920Z 2719/2818 19006KT P6SM VCTS BKN040CB 
     TEMPO 2719/2720 01007G15KT -TSRA OVC020CB 
     FM272000 33007KT P6SM VCTS BKN060CB 
     FM280000 33007KT P6SM VCSH BKN110 
     FM280400 23004KT P6SM SCT150 
     FM280800 17004KT P6SM FEW200 
     FM281700 35004KT P6SM FEW250